createdAt,value
2024-02-08T00:01:11.658Z,-1.88
2024-02-08T00:03:40.716Z,-1.89
2024-02-08T00:06:08.983Z,-1.90
2024-02-08T00:08:38.329Z,-1.91
2024-02-08T00:11:08.112Z,-1.93
2024-02-08T00:13:38.454Z,-1.93
2024-02-08T00:16:12.813Z,-1.94
2024-02-08T00:18:41.572Z,-1.97
2024-02-08T00:21:10.862Z,-1.99
2024-02-08T00:23:39.430Z,-2.00
2024-02-08T00:26:07.572Z,-2.01
2024-02-08T00:28:35.757Z,-2.04
2024-02-08T00:31:07.712Z,-2.04
2024-02-08T00:33:39.994Z,-2.05
2024-02-08T00:36:12.865Z,-2.07
2024-02-08T00:38:41.352Z,-2.10
2024-02-08T00:41:10.605Z,-2.11
2024-02-08T00:43:40.345Z,-2.12
2024-02-08T00:46:08.529Z,-2.14
2024-02-08T00:48:38.035Z,-2.16
2024-02-08T00:51:08.361Z,-2.15
2024-02-08T00:53:36.520Z,-2.18
2024-02-08T00:56:04.950Z,-2.19
2024-02-08T00:58:34.493Z,-2.19
2024-02-08T01:01:05.316Z,-2.20
2024-02-08T01:03:34.726Z,-2.21
2024-02-08T01:06:06.175Z,-2.23
2024-02-08T01:08:34.972Z,-2.26
2024-02-08T01:11:03.198Z,-2.23
2024-02-08T01:13:33.117Z,-2.27
2024-02-08T01:16:01.490Z,-2.26
2024-02-08T01:18:29.986Z,-2.27
2024-02-08T01:20:58.098Z,-2.28
2024-02-08T01:23:29.407Z,-2.29
2024-02-08T01:25:57.626Z,-2.29
2024-02-08T01:28:26.677Z,-2.30
2024-02-08T01:30:54.914Z,-2.31
2024-02-08T01:33:22.946Z,-2.34
2024-02-08T01:35:53.565Z,-2.33
2024-02-08T01:38:22.752Z,-2.34
2024-02-08T01:40:52.293Z,-2.35
2024-02-08T01:43:20.549Z,-2.36
2024-02-08T01:45:50.829Z,-2.37
2024-02-08T01:48:19.697Z,-2.38
2024-02-08T01:50:52.397Z,-2.42
2024-02-08T01:53:29.385Z,-2.41
2024-02-08T01:56:02.441Z,-2.42
2024-02-08T01:58:33.344Z,-2.46
2024-02-08T02:01:14.887Z,-2.46
2024-02-08T02:03:43.207Z,-2.47
2024-02-08T02:06:15.813Z,-2.49
2024-02-08T02:08:54.755Z,-2.48
2024-02-08T02:11:31.698Z,-2.51
2024-02-08T02:14:00.803Z,-2.52
2024-02-08T02:16:29.534Z,-2.52
2024-02-08T02:18:58.459Z,-2.55
2024-02-08T02:21:28.536Z,-2.58
2024-02-08T02:23:58.575Z,-2.57
2024-02-08T02:26:27.789Z,-2.58
2024-02-08T02:28:57.070Z,-2.61
2024-02-08T02:31:28.519Z,-2.63
2024-02-08T02:33:58.727Z,-2.63
2024-02-08T02:36:28.599Z,-2.65
2024-02-08T02:38:57.880Z,-2.67
2024-02-08T02:41:29.216Z,-2.68
2024-02-08T02:43:57.501Z,-2.70
2024-02-08T02:46:25.768Z,-2.72
2024-02-08T02:48:54.021Z,-2.74
2024-02-08T02:51:28.279Z,-2.75
2024-02-08T02:54:00.157Z,-2.78
2024-02-08T02:56:33.235Z,-2.79
2024-02-08T02:59:05.030Z,-2.80
2024-02-08T03:01:40.264Z,-2.84
2024-02-08T03:04:12.242Z,-2.84
2024-02-08T03:06:44.428Z,-2.85
2024-02-08T03:09:17.478Z,-2.87
2024-02-08T03:11:46.323Z,-2.89
2024-02-08T03:14:16.672Z,-2.91
2024-02-08T03:16:47.166Z,-2.92
2024-02-08T03:19:17.749Z,-2.95
2024-02-08T03:21:47.006Z,-2.96
2024-02-08T03:24:16.563Z,-2.97
2024-02-08T03:26:48.744Z,-2.97
2024-02-08T03:29:18.816Z,-2.99
2024-02-08T03:31:49.302Z,-3.00
2024-02-08T03:34:21.463Z,-3.02
2024-02-08T03:36:52.458Z,-3.01
2024-02-08T03:39:27.629Z,-3.02
2024-02-08T03:42:01.098Z,-3.04
2024-02-08T03:44:32.556Z,-3.04
2024-02-08T03:47:06.389Z,-3.06
2024-02-08T03:49:35.218Z,-3.07
2024-02-08T03:52:03.428Z,-3.08
2024-02-08T03:54:34.369Z,-3.08
2024-02-08T03:57:07.205Z,-3.10
2024-02-08T03:59:36.071Z,-3.10
2024-02-08T04:02:06.724Z,-3.12
2024-02-08T04:04:51.139Z,-3.11
2024-02-08T04:07:23.618Z,-3.11
2024-02-08T04:09:57.974Z,-3.11
2024-02-08T04:12:44.542Z,-3.13
2024-02-08T04:15:33.872Z,-3.14
2024-02-08T04:18:20.300Z,-3.14
2024-02-08T04:21:06.004Z,-3.14
2024-02-08T04:23:52.246Z,-3.14
2024-02-08T04:26:39.000Z,-3.15
2024-02-08T04:29:25.447Z,-3.16
2024-02-08T04:32:11.300Z,-3.18
2024-02-08T04:34:58.822Z,-3.18
2024-02-08T04:37:44.588Z,-3.19
2024-02-08T04:40:36.307Z,-3.21
2024-02-08T04:43:23.925Z,-3.22
2024-02-08T04:46:09.478Z,-3.39
2024-02-08T04:48:56.826Z,-3.67
2024-02-08T04:51:44.263Z,-4.02
2024-02-08T04:54:12.493Z,-4.30
2024-02-08T04:56:40.789Z,-4.56
2024-02-08T04:59:21.619Z,-4.79
2024-02-08T05:01:54.536Z,-5.07
2024-02-08T05:04:23.361Z,-5.28
2024-02-08T05:06:52.409Z,-5.47
2024-02-08T05:09:21.607Z,-5.66
2024-02-08T05:11:51.275Z,-5.72
2024-02-08T05:14:24.108Z,-5.56
2024-02-08T05:16:56.134Z,-5.45
2024-02-08T05:19:27.370Z,-5.33
2024-02-08T05:22:01.006Z,-5.26
2024-02-08T05:24:32.402Z,-5.13
2024-02-08T05:27:01.361Z,-5.02
2024-02-08T05:29:33.340Z,-4.95
2024-02-08T05:32:02.716Z,-4.87
2024-02-08T05:34:31.343Z,-4.78
2024-02-08T05:37:03.156Z,-4.72
2024-02-08T05:39:32.791Z,-4.65
2024-02-08T05:42:02.003Z,-4.60
2024-02-08T05:44:56.673Z,-4.55
2024-02-08T05:47:27.640Z,-4.48
2024-02-08T05:49:57.418Z,-4.43
2024-02-08T05:52:33.767Z,-4.38
2024-02-08T05:55:12.413Z,-4.34
2024-02-08T05:58:00.284Z,-4.30
2024-02-08T06:00:37.523Z,-4.24
2024-02-08T06:03:07.183Z,-4.19
2024-02-08T06:05:37.463Z,-4.15
2024-02-08T06:08:26.393Z,-4.11
2024-02-08T06:10:54.832Z,-4.08
2024-02-08T06:13:27.635Z,-4.03
2024-02-08T06:16:09.592Z,-4.00
2024-02-08T06:18:39.334Z,-3.95
2024-02-08T06:21:15.050Z,-3.87
2024-02-08T06:23:46.599Z,-3.77
2024-02-08T06:26:29.391Z,-3.67
2024-02-08T06:29:06.831Z,-3.54
2024-02-08T06:31:42.603Z,-3.43
2024-02-08T06:34:29.367Z,-3.33
2024-02-08T06:37:17.751Z,-3.27
2024-02-08T06:39:57.472Z,-3.21
2024-02-08T06:42:48.576Z,-3.12
2024-02-08T06:45:46.236Z,-3.02
2024-02-08T06:48:43.656Z,-2.88
2024-02-08T06:51:29.331Z,-2.71
2024-02-08T06:54:14.799Z,-2.54
2024-02-08T06:57:00.279Z,-2.37
2024-02-08T06:59:48.469Z,-2.20
2024-02-08T07:02:34.308Z,-2.03
2024-02-08T07:05:21.434Z,-1.85
2024-02-08T07:08:13.210Z,-1.67
2024-02-08T07:10:59.097Z,-1.47
2024-02-08T07:13:44.664Z,-1.30
2024-02-08T07:16:31.268Z,-1.11
2024-02-08T07:19:17.243Z,-0.94
2024-02-08T07:22:04.684Z,-0.78
2024-02-08T07:24:50.157Z,-0.61
2024-02-08T07:27:35.616Z,-0.45
2024-02-08T07:30:20.878Z,-0.30
2024-02-08T07:33:06.624Z,-0.16
2024-02-08T07:35:53.260Z,0.00
2024-02-08T07:38:43.781Z,0.16
2024-02-08T07:41:13.648Z,0.31
2024-02-08T07:43:45.248Z,0.47
2024-02-08T07:46:18.057Z,0.62
2024-02-08T07:48:46.772Z,0.76
2024-02-08T07:51:17.510Z,0.89
2024-02-08T07:53:53.275Z,1.04
2024-02-08T07:56:38.741Z,1.15
2024-02-08T07:59:17.131Z,1.24
2024-02-08T08:01:51.487Z,1.41
2024-02-08T08:04:34.684Z,1.53
2024-02-08T08:07:03.298Z,1.65
2024-02-08T08:09:37.718Z,1.77
2024-02-08T08:12:07.729Z,1.88
2024-02-08T08:14:57.996Z,2.00
2024-02-08T08:17:42.107Z,2.14
2024-02-08T08:20:38.529Z,2.24
2024-02-08T08:23:26.883Z,2.38
2024-02-08T08:26:23.747Z,2.46
2024-02-08T08:28:54.111Z,2.60
2024-02-08T08:31:37.427Z,2.69
2024-02-08T08:34:24.000Z,2.80
2024-02-08T08:37:00.015Z,2.92
2024-02-08T08:39:46.368Z,3.01
2024-02-08T08:42:19.176Z,3.09
2024-02-08T08:44:52.989Z,3.17
2024-02-08T08:47:25.906Z,3.24
2024-02-08T08:49:54.756Z,3.32
2024-02-08T08:52:25.948Z,3.37
2024-02-08T08:55:12.736Z,3.41
2024-02-08T08:57:42.428Z,3.45
2024-02-08T09:00:12.784Z,3.51
2024-02-08T09:02:43.713Z,3.55
2024-02-08T09:05:19.192Z,3.59
2024-02-08T09:07:48.726Z,3.65
2024-02-08T09:10:19.021Z,3.69
2024-02-08T09:12:59.856Z,3.75
2024-02-08T09:15:42.381Z,3.80
2024-02-08T09:18:11.354Z,3.84
2024-02-08T09:20:39.824Z,3.85
2024-02-08T09:23:15.509Z,3.87
2024-02-08T09:25:47.155Z,3.88
2024-02-08T09:28:28.669Z,3.88
2024-02-08T09:30:59.401Z,3.88
2024-02-08T09:33:45.586Z,3.88
2024-02-08T09:36:16.069Z,3.87
2024-02-08T09:38:47.116Z,3.87
2024-02-08T09:41:25.699Z,3.87
2024-02-08T09:43:59.308Z,3.88
2024-02-08T09:46:47.317Z,3.87
2024-02-08T09:49:18.570Z,3.86
2024-02-08T09:51:54.697Z,3.83
2024-02-08T09:54:30.432Z,3.85
2024-02-08T09:57:04.013Z,3.82
2024-02-08T09:59:53.338Z,3.82
2024-02-08T10:02:34.178Z,3.81
2024-02-08T10:05:21.131Z,3.80
2024-02-08T10:08:06.920Z,3.77
2024-02-08T10:10:45.499Z,3.74
2024-02-08T10:13:28.835Z,3.70
2024-02-08T10:16:13.898Z,3.67
2024-02-08T10:18:43.300Z,3.63
2024-02-08T10:21:14.917Z,3.58
2024-02-08T10:23:49.914Z,3.53
2024-02-08T10:26:28.742Z,3.46
2024-02-08T10:28:56.724Z,3.44
2024-02-08T10:31:26.868Z,3.39
2024-02-08T10:34:11.190Z,3.35
2024-02-08T10:36:46.340Z,3.25
2024-02-08T10:39:26.693Z,3.20
2024-02-08T10:42:02.973Z,3.17
2024-02-08T10:44:34.930Z,3.13
2024-02-08T10:47:09.249Z,3.06
2024-02-08T10:49:46.534Z,3.01
2024-02-08T10:52:18.028Z,2.97
2024-02-08T10:54:53.968Z,2.92
2024-02-08T10:57:58.506Z,2.90
2024-02-08T11:00:45.069Z,2.83
2024-02-08T11:03:29.596Z,2.78
2024-02-08T11:06:04.802Z,2.75
2024-02-08T11:08:51.445Z,2.69
2024-02-08T11:11:22.478Z,2.60
2024-02-08T11:13:55.114Z,2.59
2024-02-08T11:16:29.268Z,2.58
2024-02-08T11:19:01.904Z,2.54
2024-02-08T11:21:45.265Z,2.49
2024-02-08T11:24:29.375Z,2.44
2024-02-08T11:27:03.742Z,2.40
2024-02-08T11:29:46.778Z,2.36
2024-02-08T11:32:18.446Z,2.31
2024-02-08T11:34:56.056Z,2.26
2024-02-08T11:37:32.238Z,2.22
2024-02-08T11:40:03.247Z,2.17
2024-02-08T11:42:38.540Z,2.16
2024-02-08T11:45:11.240Z,2.11
2024-02-08T11:47:43.357Z,2.07
2024-02-08T11:50:24.635Z,2.02
2024-02-08T11:53:00.547Z,1.98
2024-02-08T11:55:33.672Z,1.94
2024-02-08T11:58:07.230Z,1.89
2024-02-08T12:00:46.792Z,1.87
2024-02-08T12:03:19.096Z,1.84
2024-02-08T12:05:57.126Z,1.80
2024-02-08T12:08:36.760Z,1.77
2024-02-08T12:11:09.406Z,1.74
2024-02-08T12:13:41.393Z,1.70
2024-02-08T12:16:12.661Z,1.65
2024-02-08T12:18:41.668Z,1.63
2024-02-08T12:21:19.004Z,1.60
2024-02-08T12:23:54.461Z,1.51
2024-02-08T12:26:26.497Z,1.55
2024-02-08T12:28:58.294Z,1.52
2024-02-08T12:31:31.088Z,1.45
2024-02-08T12:34:04.897Z,1.44
2024-02-08T12:36:36.652Z,1.44
2024-02-08T12:39:19.106Z,1.40
2024-02-08T12:41:50.556Z,1.38
2024-02-08T12:44:22.099Z,1.33
2024-02-08T12:46:56.166Z,1.31
2024-02-08T12:49:26.341Z,1.29
2024-02-08T12:52:00.754Z,1.26
2024-02-08T12:54:29.752Z,1.23
2024-02-08T12:57:09.283Z,1.20
2024-02-08T12:59:38.573Z,1.19
2024-02-08T13:02:11.339Z,1.13
2024-02-08T13:04:45.665Z,1.11
2024-02-08T13:07:19.204Z,1.10
2024-02-08T13:09:48.836Z,1.07
2024-02-08T13:12:20.436Z,1.05
2024-02-08T13:15:04.094Z,1.03
2024-02-08T13:17:35.371Z,1.01
2024-02-08T13:20:13.815Z,0.98
2024-02-08T13:22:46.979Z,0.93
2024-02-08T13:25:17.568Z,0.90
2024-02-08T13:27:47.301Z,0.88
2024-02-08T13:30:18.783Z,0.86
2024-02-08T13:32:50.765Z,0.82
2024-02-08T13:35:20.634Z,0.82
2024-02-08T13:37:54.249Z,0.79
2024-02-08T13:40:24.166Z,0.77
2024-02-08T13:42:57.348Z,0.74
2024-02-08T13:45:29.421Z,0.73
2024-02-08T13:48:00.100Z,0.67
2024-02-08T13:50:32.778Z,0.67
2024-02-08T13:53:05.800Z,0.65
2024-02-08T13:58:08.533Z,0.59
2024-02-08T14:00:37.634Z,0.56
2024-02-08T14:03:09.511Z,0.54
2024-02-08T14:05:40.940Z,0.51
2024-02-08T14:08:18.715Z,0.48
2024-02-08T14:10:48.755Z,0.45
2024-02-08T14:13:30.605Z,0.42
2024-02-08T14:16:02.235Z,0.38
2024-02-08T14:18:34.317Z,0.34
2024-02-08T14:21:04.585Z,0.29
2024-02-08T14:23:39.294Z,0.27
2024-02-08T14:26:32.738Z,0.24
2024-02-08T14:29:05.794Z,0.21
2024-02-08T14:31:38.915Z,0.18
2024-02-08T14:34:10.938Z,0.17
2024-02-08T14:36:48.769Z,0.14
2024-02-08T14:39:34.232Z,0.10
2024-02-08T14:42:03.131Z,0.09
2024-02-08T14:44:42.362Z,0.05
2024-02-08T14:47:16.861Z,0.01
2024-02-08T14:49:57.981Z,0.01
2024-02-08T14:52:30.322Z,-0.03
2024-02-08T14:55:11.760Z,-0.06
2024-02-08T14:57:43.404Z,-0.10
2024-02-08T15:00:29.977Z,-0.10
2024-02-08T15:03:04.310Z,-0.14
2024-02-08T15:05:49.260Z,-0.15
2024-02-08T15:08:47.277Z,-0.17
2024-02-08T15:11:39.916Z,-0.25
2024-02-08T15:14:08.482Z,-0.24
2024-02-08T15:16:38.529Z,-0.26
2024-02-08T15:19:07.827Z,-0.28
2024-02-08T15:21:37.661Z,-0.30
2024-02-08T15:24:21.400Z,-0.34
2024-02-08T15:27:05.817Z,-0.36
2024-02-08T15:29:44.007Z,-0.39
2024-02-08T15:32:19.030Z,-0.42
2024-02-08T15:35:06.352Z,-0.51
2024-02-08T15:37:43.138Z,-0.45
2024-02-08T15:40:14.308Z,-0.46
2024-02-08T15:42:45.032Z,-0.48
2024-02-08T15:45:14.756Z,-0.50
2024-02-08T15:47:59.216Z,-0.53
2024-02-08T15:50:34.187Z,-0.55
2024-02-08T15:53:10.407Z,-0.58
2024-02-08T15:55:44.065Z,-0.59
2024-02-08T15:58:29.393Z,-0.62
2024-02-08T16:01:17.306Z,-0.64
2024-02-08T16:03:56.742Z,-0.66
2024-02-08T16:06:45.976Z,-0.70
2024-02-08T16:09:27.436Z,-0.73
2024-02-08T16:12:01.609Z,-0.72
2024-02-08T16:14:43.437Z,-0.75
2024-02-08T16:17:38.634Z,-0.83
2024-02-08T16:20:24.650Z,-0.78
2024-02-08T16:23:04.057Z,-0.80
2024-02-08T16:25:45.978Z,-0.83
2024-02-08T16:28:19.323Z,-0.82
2024-02-08T16:31:11.810Z,-0.85
2024-02-08T16:33:50.328Z,-0.87
2024-02-08T16:36:45.717Z,-0.89
2024-02-08T16:39:34.712Z,-0.88
2024-02-08T16:42:03.147Z,-0.90
2024-02-08T16:44:36.432Z,-0.96
2024-02-08T16:47:23.940Z,-0.96
2024-02-08T16:49:52.053Z,-0.95
2024-02-08T16:52:23.324Z,-1.02
2024-02-08T16:55:01.389Z,-0.98
2024-02-08T16:57:33.252Z,-0.99
2024-02-08T17:00:22.589Z,-1.00
2024-02-08T17:03:05.491Z,-1.03
2024-02-08T17:05:50.725Z,-1.02
2024-02-08T17:08:22.129Z,-1.04
2024-02-08T17:10:57.247Z,-1.05
2024-02-08T17:13:38.414Z,-1.06
2024-02-08T17:16:26.437Z,-1.06
2024-02-08T17:19:23.327Z,-1.10
2024-02-08T17:22:09.550Z,-1.09
2024-02-08T17:24:47.788Z,-1.09
2024-02-08T17:27:39.187Z,-1.11
2024-02-08T17:30:18.198Z,-1.12
2024-02-08T17:32:46.661Z,-1.12
2024-02-08T17:35:17.689Z,-1.12
2024-02-08T17:37:49.900Z,-1.13
2024-02-08T17:40:21.491Z,-1.14
2024-02-08T17:42:51.318Z,-1.16
2024-02-08T17:45:21.543Z,-1.16
2024-02-08T17:47:50.681Z,-1.16
2024-02-08T17:50:31.049Z,-1.18
2024-02-08T17:53:01.048Z,-1.17
2024-02-08T17:55:37.494Z,-1.17
2024-02-08T17:58:14.125Z,-1.19
2024-02-08T18:00:49.629Z,-1.23
2024-02-08T18:03:27.127Z,-1.23
2024-02-08T18:05:58.247Z,-1.22
2024-02-08T18:08:27.302Z,-1.30
2024-02-08T18:10:55.771Z,-1.25
2024-02-08T18:13:27.631Z,-1.24
2024-02-08T18:15:58.702Z,-1.27
2024-02-08T18:18:27.452Z,-1.28
2024-02-08T18:20:59.518Z,-1.36
2024-02-08T18:23:34.132Z,-1.78
2024-02-08T18:26:05.242Z,-2.24
2024-02-08T18:28:33.877Z,-2.65
2024-02-08T18:31:07.268Z,-3.04
2024-02-08T18:33:36.555Z,-3.37
2024-02-08T18:36:09.301Z,-3.60
2024-02-08T18:38:39.525Z,-3.80
2024-02-08T18:41:08.380Z,-3.86
2024-02-08T18:43:36.672Z,-3.74
2024-02-08T18:46:07.385Z,-3.60
2024-02-08T18:48:42.383Z,-3.46
2024-02-08T18:51:17.191Z,-3.33
2024-02-08T18:53:46.285Z,-3.19
2024-02-08T18:56:20.503Z,-3.08
2024-02-08T18:58:53.412Z,-2.97
2024-02-08T19:01:26.539Z,-2.89
2024-02-08T19:03:56.004Z,-2.81
2024-02-08T19:06:27.705Z,-2.73
2024-02-08T19:08:56.807Z,-2.68
2024-02-08T19:11:25.031Z,-2.63
2024-02-08T19:13:53.663Z,-2.58
2024-02-08T19:16:29.155Z,-2.52
2024-02-08T19:19:02.320Z,-2.48
2024-02-08T19:21:39.130Z,-2.50
2024-02-08T19:24:08.728Z,-2.41
2024-02-08T19:26:37.152Z,-2.38
2024-02-08T19:29:07.579Z,-2.35
2024-02-08T19:31:43.360Z,-2.32
2024-02-08T19:34:19.170Z,-2.31
2024-02-08T19:36:54.297Z,-2.29
2024-02-08T19:39:40.568Z,-2.25
2024-02-08T19:42:19.702Z,-2.22
2024-02-08T19:44:54.503Z,-2.23
2024-02-08T19:47:28.446Z,-2.20
2024-02-08T19:50:05.042Z,-2.19
2024-02-08T19:52:41.671Z,-2.18
2024-02-08T19:55:22.849Z,-2.16
2024-02-08T19:57:54.402Z,-2.16
2024-02-08T20:00:29.912Z,-2.17
2024-02-08T20:03:01.440Z,-2.16
2024-02-08T20:05:36.600Z,-2.18
2024-02-08T20:08:11.329Z,-2.17
2024-02-08T20:10:41.908Z,-2.18
2024-02-08T20:13:16.192Z,-2.19
2024-02-08T20:15:45.387Z,-2.23
2024-02-08T20:18:18.869Z,-2.22
2024-02-08T20:20:48.988Z,-2.21
2024-02-08T20:23:23.353Z,-2.22
2024-02-08T20:25:55.742Z,-2.22
2024-02-08T20:28:24.828Z,-2.24
2024-02-08T20:30:55.612Z,-2.25
2024-02-08T20:33:24.562Z,-2.28
2024-02-08T20:35:56.982Z,-2.29
2024-02-08T20:38:28.193Z,-2.29
2024-02-08T20:40:57.412Z,-2.31
2024-02-08T20:43:28.080Z,-2.32
2024-02-08T20:45:58.669Z,-2.33
2024-02-08T20:48:27.025Z,-2.35
2024-02-08T20:50:56.817Z,-2.37
2024-02-08T20:53:28.456Z,-2.40
2024-02-08T20:55:57.820Z,-2.41
2024-02-08T20:58:26.235Z,-2.43
2024-02-08T21:00:56.529Z,-2.48
2024-02-08T21:03:28.094Z,-2.47
2024-02-08T21:05:59.520Z,-2.48
2024-02-08T21:08:30.456Z,-2.51
2024-02-08T21:11:00.110Z,-2.52
2024-02-08T21:13:33.405Z,-2.57
2024-02-08T21:16:01.842Z,-2.57
2024-02-08T21:18:30.727Z,-2.58
2024-02-08T21:20:59.992Z,-2.59
2024-02-08T21:23:28.258Z,-2.66
2024-02-08T21:26:23.144Z,-2.64
2024-02-08T21:28:55.663Z,-2.65
2024-02-08T21:34:25.833Z,-2.73
2024-02-08T21:36:55.051Z,-2.73
2024-02-08T21:39:33.147Z,-2.74
2024-02-08T21:42:07.528Z,-2.78
2024-02-08T21:44:39.681Z,-2.78
2024-02-08T21:47:08.119Z,-2.80
2024-02-08T21:49:36.378Z,-2.82
2024-02-08T21:52:08.806Z,-2.86
2024-02-08T21:54:39.314Z,-2.86
2024-02-08T21:57:09.295Z,-2.86
2024-02-08T21:59:38.036Z,-2.88
2024-02-08T22:02:09.428Z,-2.95
2024-02-08T22:04:39.078Z,-2.91
2024-02-08T22:07:07.900Z,-2.91
2024-02-08T22:09:36.864Z,-2.94
2024-02-08T22:12:06.207Z,-2.96
2024-02-08T22:14:40.612Z,-2.96
2024-02-08T22:17:10.796Z,-3.04
2024-02-08T22:19:44.680Z,-3.01
2024-02-08T22:22:15.160Z,-3.00
2024-02-08T22:24:43.692Z,-3.03
2024-02-08T22:27:12.206Z,-3.06
2024-02-08T22:29:42.338Z,-3.05
2024-02-08T22:32:12.730Z,-3.06
2024-02-08T22:34:42.791Z,-3.09
2024-02-08T22:37:11.781Z,-3.09
2024-02-08T22:39:39.931Z,-3.10
2024-02-08T22:42:08.308Z,-3.13
2024-02-08T22:44:39.334Z,-3.14
2024-02-08T22:47:08.980Z,-3.22
2024-02-08T22:49:37.915Z,-3.18
2024-02-08T22:52:07.230Z,-3.20
2024-02-08T22:54:35.474Z,-3.22
2024-02-08T22:57:04.910Z,-3.24
2024-02-08T22:59:33.056Z,-3.26
2024-02-08T23:02:08.200Z,-3.26
2024-02-08T23:04:39.134Z,-3.33
2024-02-08T23:07:08.961Z,-3.32
2024-02-08T23:09:37.359Z,-3.40
2024-02-08T23:12:07.096Z,-3.37
2024-02-08T23:14:35.232Z,-3.37
2024-02-08T23:17:04.595Z,-3.38
2024-02-08T23:19:34.065Z,-3.41
2024-02-08T23:22:07.198Z,-3.43
2024-02-08T23:24:41.988Z,-3.45
2024-02-08T23:27:11.097Z,-3.47
2024-02-08T23:29:39.250Z,-3.49
2024-02-08T23:32:09.975Z,-3.51
2024-02-08T23:34:41.882Z,-3.53
2024-02-08T23:37:13.026Z,-3.53
2024-02-08T23:39:41.414Z,-3.56
2024-02-08T23:42:09.746Z,-3.58
2024-02-08T23:44:39.672Z,-3.59
2024-02-08T23:47:08.224Z,-3.61
2024-02-08T23:49:36.341Z,-3.62
2024-02-08T23:52:04.790Z,-3.66
2024-02-08T23:54:34.327Z,-3.66
2024-02-08T23:57:05.819Z,-3.67
2024-02-08T23:59:34.817Z,-3.68
